createdAt,value
2023-01-29T00:00:22.040Z,13.75
2023-01-29T00:02:48.711Z,15.38
2023-01-29T00:05:27.083Z,14.40
2023-01-29T00:07:55.330Z,14.90
2023-01-29T00:10:22.262Z,15.45
2023-01-29T00:12:48.843Z,13.70
2023-01-29T00:15:15.432Z,17.13
2023-01-29T00:17:41.984Z,15.70
2023-01-29T00:20:09.413Z,16.23
2023-01-29T00:22:36.709Z,11.82
2023-01-29T00:25:03.323Z,14.82
2023-01-29T00:27:29.876Z,14.85
2023-01-29T00:30:19.319Z,15.13
2023-01-29T00:32:46.222Z,16.00
2023-01-29T00:35:12.844Z,14.93
2023-01-29T00:37:39.485Z,14.75
2023-01-29T00:40:06.480Z,12.27
2023-01-29T00:42:51.794Z,14.75
2023-01-29T00:45:18.445Z,16.05
2023-01-29T00:47:45.566Z,16.05
2023-01-29T00:50:12.988Z,13.63
2023-01-29T00:52:42.958Z,14.25
2023-01-29T00:55:10.552Z,13.25
2023-01-29T00:57:38.736Z,14.98
2023-01-29T01:00:10.669Z,15.40
2023-01-29T01:02:55.983Z,13.93
2023-01-29T01:05:22.782Z,12.52
2023-01-29T01:07:52.406Z,15.23
2023-01-29T01:10:22.288Z,13.43
2023-01-29T01:12:51.647Z,14.20
2023-01-29T01:15:18.828Z,14.30
2023-01-29T01:17:45.682Z,15.20
2023-01-29T01:20:13.131Z,15.93
2023-01-29T01:22:40.379Z,13.95
2023-01-29T01:25:07.418Z,15.25
2023-01-29T01:27:34.809Z,13.75
2023-01-29T01:30:01.568Z,15.38
2023-01-29T01:32:28.695Z,12.27
2023-01-29T01:34:55.298Z,14.05
2023-01-29T01:37:22.489Z,12.40
2023-01-29T01:39:50.611Z,15.02
2023-01-29T01:42:17.247Z,14.02
2023-01-29T01:45:01.315Z,12.10
2023-01-29T01:47:43.210Z,10.85
2023-01-29T01:50:18.785Z,13.65
2023-01-29T01:52:50.256Z,13.35
2023-01-29T01:55:21.648Z,13.88
2023-01-29T01:57:52.889Z,11.93
2023-01-29T02:00:22.065Z,12.52
2023-01-29T02:03:07.730Z,14.00
2023-01-29T02:05:55.160Z,27.50
2023-01-29T02:08:54.553Z,14.48
2023-01-29T02:11:21.149Z,12.93
2023-01-29T02:13:53.478Z,13.63
2023-01-29T02:16:25.299Z,13.75
2023-01-29T02:18:52.409Z,15.00
2023-01-29T02:21:25.001Z,14.32
2023-01-29T02:24:32.830Z,13.70
2023-01-29T02:27:05.811Z,12.98
2023-01-29T02:29:47.835Z,12.32
2023-01-29T02:32:34.821Z,13.88
2023-01-29T02:35:32.022Z,13.27
2023-01-29T02:38:06.453Z,14.00
2023-01-29T02:40:47.074Z,13.13
2023-01-29T02:43:32.467Z,14.23
2023-01-29T02:46:17.784Z,15.43
2023-01-29T02:49:12.559Z,15.95
2023-01-29T02:51:49.729Z,14.70
2023-01-29T02:54:37.785Z,14.88
2023-01-29T02:57:14.850Z,16.50
2023-01-29T02:59:48.919Z,13.35
2023-01-29T03:02:20.829Z,12.68
2023-01-29T03:04:54.729Z,11.80
2023-01-29T03:07:42.377Z,13.63
2023-01-29T03:10:21.713Z,12.35
2023-01-29T03:12:55.665Z,12.30
2023-01-29T03:15:29.694Z,12.57
2023-01-29T03:18:17.714Z,12.00
2023-01-29T03:20:54.366Z,11.20
2023-01-29T03:23:38.149Z,10.93
2023-01-29T03:26:27.388Z,10.82
2023-01-29T03:29:13.360Z,10.05
2023-01-29T03:31:59.960Z,9.15
2023-01-29T03:34:37.010Z,10.75
2023-01-29T03:37:09.252Z,10.35
2023-01-29T03:39:37.011Z,9.85
2023-01-29T03:42:23.799Z,10.27
2023-01-29T03:45:08.505Z,10.90
2023-01-29T03:48:00.469Z,11.23
2023-01-29T03:50:41.867Z,8.90
2023-01-29T03:53:28.097Z,10.90
2023-01-29T03:56:02.415Z,10.68
2023-01-29T03:58:53.391Z,13.38
2023-01-29T04:01:33.403Z,12.38
2023-01-29T04:04:12.208Z,11.52
2023-01-29T04:06:43.146Z,11.25
2023-01-29T04:09:22.113Z,10.82
2023-01-29T04:12:07.263Z,12.43
2023-01-29T04:14:34.114Z,11.10
2023-01-29T04:17:08.892Z,10.82
2023-01-29T04:19:45.541Z,10.63
2023-01-29T04:22:30.421Z,13.13
2023-01-29T04:25:02.494Z,11.13
2023-01-29T04:27:55.416Z,12.65
2023-01-29T04:30:28.056Z,11.30
2023-01-29T04:33:16.601Z,10.98
2023-01-29T04:35:55.412Z,12.82
2023-01-29T04:38:52.203Z,12.45
2023-01-29T04:41:24.735Z,10.77
2023-01-29T04:44:23.378Z,9.52
2023-01-29T04:46:54.517Z,10.10
2023-01-29T04:50:03.833Z,10.25
2023-01-29T04:52:41.509Z,8.30
2023-01-29T04:55:13.706Z,9.88
2023-01-29T04:57:57.248Z,6.72
2023-01-29T05:00:35.516Z,9.15
2023-01-29T05:03:02.895Z,7.68
2023-01-29T05:05:30.899Z,6.00
2023-01-29T05:07:59.110Z,7.90
2023-01-29T05:10:26.673Z,6.80
2023-01-29T05:12:59.889Z,8.35
2023-01-29T05:15:33.674Z,8.50
2023-01-29T05:18:03.055Z,9.57
2023-01-29T05:20:33.875Z,8.77
2023-01-29T05:23:00.674Z,8.98
2023-01-29T05:25:31.025Z,8.07
2023-01-29T05:28:26.824Z,8.05
2023-01-29T05:30:56.508Z,8.20
2023-01-29T05:33:27.312Z,8.15
2023-01-29T05:35:55.270Z,8.43
2023-01-29T05:38:22.724Z,7.30
2023-01-29T05:40:49.497Z,10.88
2023-01-29T05:43:21.482Z,8.95
2023-01-29T05:45:59.360Z,7.55
2023-01-29T05:48:28.894Z,9.43
2023-01-29T05:51:03.724Z,11.77
2023-01-29T05:53:31.019Z,8.60
2023-01-29T05:56:01.835Z,8.43
2023-01-29T05:58:30.909Z,9.40
2023-01-29T06:00:57.922Z,8.98
2023-01-29T06:03:25.039Z,11.77
2023-01-29T06:05:51.577Z,9.27
2023-01-29T06:08:18.174Z,10.73
2023-01-29T06:10:44.723Z,11.30
2023-01-29T06:13:11.392Z,11.35
2023-01-29T06:15:41.215Z,11.63
2023-01-29T06:18:08.348Z,11.55
2023-01-29T06:20:34.937Z,11.75
2023-01-29T06:23:01.588Z,13.13
2023-01-29T06:25:28.219Z,10.85
2023-01-29T06:27:55.174Z,12.88
2023-01-29T06:30:22.620Z,12.98
2023-01-29T06:32:49.153Z,14.23
2023-01-29T06:35:15.790Z,15.32
2023-01-29T06:37:42.547Z,10.98
2023-01-29T06:40:09.953Z,12.45
2023-01-29T06:42:36.533Z,11.43
2023-01-29T06:45:03.364Z,11.77
2023-01-29T06:47:29.948Z,11.35
2023-01-29T06:49:56.546Z,13.68
2023-01-29T06:52:23.107Z,13.85
2023-01-29T06:54:49.711Z,11.05
2023-01-29T06:57:16.255Z,11.10
2023-01-29T06:59:42.874Z,10.18
2023-01-29T07:02:09.585Z,13.88
2023-01-29T07:04:37.736Z,11.80
2023-01-29T07:07:04.390Z,12.20
2023-01-29T07:09:31.296Z,12.95
2023-01-29T07:11:57.883Z,11.70
2023-01-29T07:14:24.413Z,9.93
2023-01-29T07:16:51.130Z,11.20
2023-01-29T07:19:17.680Z,10.75
2023-01-29T07:21:44.311Z,12.20
2023-01-29T07:24:10.905Z,13.82
2023-01-29T07:26:37.523Z,10.70
2023-01-29T07:29:05.166Z,9.85
2023-01-29T07:31:31.868Z,12.63
2023-01-29T07:33:58.469Z,14.77
2023-01-29T07:36:25.193Z,11.70
2023-01-29T07:38:51.856Z,11.48
2023-01-29T07:41:18.898Z,10.82
2023-01-29T07:43:46.641Z,10.77
2023-01-29T07:46:13.321Z,10.98
2023-01-29T07:48:39.927Z,9.55
2023-01-29T07:51:06.825Z,12.10
2023-01-29T07:53:33.485Z,10.88
2023-01-29T07:56:00.132Z,10.75
2023-01-29T07:58:26.773Z,11.70
2023-01-29T08:00:53.370Z,8.52
2023-01-29T08:03:20.783Z,15.02
2023-01-29T08:05:48.366Z,12.95
2023-01-29T08:08:15.291Z,11.50
2023-01-29T08:10:42.257Z,8.98
2023-01-29T08:13:09.171Z,10.85
2023-01-29T08:15:38.018Z,10.13
2023-01-29T08:18:06.507Z,11.60
2023-01-29T08:20:33.438Z,11.82
2023-01-29T08:23:05.135Z,12.70
2023-01-29T08:25:32.823Z,12.50
2023-01-29T08:28:00.792Z,12.40
2023-01-29T08:30:30.012Z,12.10
2023-01-29T08:32:56.617Z,10.57
2023-01-29T08:35:24.030Z,14.70
2023-01-29T08:37:59.409Z,11.88
2023-01-29T08:40:27.685Z,12.20
2023-01-29T08:43:02.973Z,10.48
2023-01-29T08:45:33.393Z,12.95
2023-01-29T08:48:00.102Z,12.27
2023-01-29T08:50:26.831Z,13.63
2023-01-29T08:52:58.723Z,12.50
2023-01-29T08:55:25.998Z,13.00
2023-01-29T08:57:52.694Z,11.18
2023-01-29T09:00:19.646Z,12.40
2023-01-29T09:02:46.361Z,9.45
2023-01-29T09:05:13.018Z,12.25
2023-01-29T09:07:39.606Z,10.00
2023-01-29T09:10:06.499Z,11.63
2023-01-29T09:12:33.030Z,16.15
2023-01-29T09:14:59.577Z,10.80
2023-01-29T09:17:26.208Z,11.57
2023-01-29T09:19:53.110Z,11.60
2023-01-29T09:22:20.514Z,10.63
2023-01-29T09:24:47.246Z,10.73
2023-01-29T09:27:13.869Z,12.85
2023-01-29T09:29:40.560Z,12.70
2023-01-29T09:32:07.263Z,12.27
2023-01-29T09:34:34.313Z,10.05
2023-01-29T09:37:00.882Z,10.30
2023-01-29T09:39:27.651Z,9.60
2023-01-29T09:42:12.590Z,13.45
2023-01-29T09:45:13.256Z,13.40
2023-01-29T09:47:40.137Z,11.93
2023-01-29T09:50:15.748Z,12.93
2023-01-29T09:52:56.246Z,13.18
2023-01-29T09:55:27.109Z,11.48
2023-01-29T09:57:57.838Z,14.73
2023-01-29T10:00:58.834Z,11.95
2023-01-29T10:03:34.715Z,10.55
2023-01-29T10:06:20.590Z,11.35
2023-01-29T10:09:19.543Z,11.32
2023-01-29T10:12:08.641Z,9.05
2023-01-29T10:15:12.974Z,12.32
2023-01-29T10:17:58.375Z,12.02
2023-01-29T10:20:39.508Z,12.95
2023-01-29T10:23:14.912Z,13.60
2023-01-29T10:25:42.931Z,11.90
2023-01-29T10:28:20.518Z,10.40
2023-01-29T10:30:54.944Z,10.95
2023-01-29T10:33:48.764Z,12.10
2023-01-29T10:36:22.788Z,11.13
2023-01-29T10:38:51.083Z,10.95
2023-01-29T10:41:20.335Z,10.27
2023-01-29T10:43:49.651Z,10.35
2023-01-29T10:46:47.509Z,12.15
2023-01-29T10:49:39.246Z,11.82
2023-01-29T10:52:16.136Z,11.57
2023-01-29T10:54:51.236Z,12.32
2023-01-29T10:57:45.863Z,9.43
2023-01-29T11:00:28.572Z,10.05
2023-01-29T11:05:51.374Z,11.15
2023-01-29T11:08:39.097Z,11.73
2023-01-29T11:11:17.260Z,12.07
2023-01-29T11:13:52.613Z,12.70
2023-01-29T11:16:19.190Z,12.32
2023-01-29T11:18:57.428Z,12.93
2023-01-29T11:21:26.085Z,11.68
2023-01-29T11:24:07.061Z,12.55
2023-01-29T11:26:38.494Z,15.55
2023-01-29T11:29:05.295Z,11.60
2023-01-29T11:31:40.693Z,13.60
2023-01-29T11:34:19.469Z,11.98
2023-01-29T11:36:46.861Z,11.35
2023-01-29T11:39:21.399Z,12.57
2023-01-29T11:42:02.781Z,12.95
2023-01-29T11:44:33.281Z,10.52
2023-01-29T11:47:13.324Z,12.27
2023-01-29T11:49:46.862Z,14.00
2023-01-29T11:52:16.335Z,13.68
2023-01-29T11:54:52.592Z,11.50
2023-01-29T11:57:26.507Z,11.27
2023-01-29T11:59:55.626Z,11.80
2023-01-29T12:02:31.516Z,12.52
2023-01-29T12:05:02.212Z,14.07
2023-01-29T12:07:29.617Z,11.82
2023-01-29T12:10:00.200Z,12.93
2023-01-29T12:12:29.722Z,14.32
2023-01-29T12:15:08.571Z,13.32
2023-01-29T12:17:39.004Z,12.95
2023-01-29T12:20:15.467Z,14.65
2023-01-29T12:22:48.861Z,13.32
2023-01-29T12:25:25.975Z,11.43
2023-01-29T12:28:09.195Z,14.75
2023-01-29T12:30:54.739Z,14.98
2023-01-29T12:33:37.144Z,14.93
2023-01-29T12:36:12.529Z,14.80
2023-01-29T12:38:40.992Z,11.15
2023-01-29T12:41:30.124Z,15.80
2023-01-29T12:44:02.969Z,13.70
2023-01-29T12:46:34.660Z,13.63
2023-01-29T12:49:07.385Z,14.00
2023-01-29T12:51:40.813Z,15.82
2023-01-29T12:54:12.979Z,16.50
2023-01-29T12:56:47.194Z,13.65
2023-01-29T12:59:22.639Z,11.48
2023-01-29T13:02:04.622Z,17.95
2023-01-29T13:04:42.312Z,15.60
2023-01-29T13:07:19.467Z,14.38
2023-01-29T13:09:53.313Z,17.55
2023-01-29T13:12:23.121Z,13.85
2023-01-29T13:15:28.439Z,12.82
2023-01-29T13:18:02.123Z,12.90
2023-01-29T13:20:32.168Z,14.10
2023-01-29T13:23:20.563Z,13.70
2023-01-29T13:25:51.409Z,14.68
2023-01-29T13:28:21.013Z,14.88
2023-01-29T13:30:47.952Z,13.80
2023-01-29T13:33:23.669Z,17.55
2023-01-29T13:35:59.427Z,12.98
2023-01-29T13:38:33.333Z,14.15
2023-01-29T13:41:08.733Z,13.93
2023-01-29T13:43:41.959Z,14.77
2023-01-29T13:46:12.372Z,14.68
2023-01-29T13:48:46.739Z,16.25
2023-01-29T13:51:20.017Z,12.23
2023-01-29T13:53:53.529Z,14.77
2023-01-29T13:56:35.091Z,13.45
2023-01-29T13:59:05.455Z,13.43
2023-01-29T14:01:47.277Z,12.88
2023-01-29T14:04:21.658Z,14.60
2023-01-29T14:06:52.342Z,14.60
2023-01-29T14:09:34.274Z,13.57
2023-01-29T14:12:00.995Z,15.23
2023-01-29T14:14:49.660Z,13.32
2023-01-29T14:17:18.507Z,13.10
2023-01-29T14:19:53.493Z,15.00
2023-01-29T14:22:27.059Z,14.90
2023-01-29T14:24:57.889Z,13.15
2023-01-29T14:27:25.784Z,13.32
2023-01-29T14:30:00.840Z,15.82
2023-01-29T14:32:27.933Z,15.27
2023-01-29T14:35:03.480Z,16.80
2023-01-29T14:37:36.638Z,13.57
2023-01-29T14:40:12.307Z,18.35
2023-01-29T14:42:44.011Z,13.93
2023-01-29T14:45:22.389Z,36.83
2023-01-29T14:47:48.882Z,18.50
2023-01-29T14:50:35.796Z,15.57
2023-01-29T14:53:10.468Z,16.15
2023-01-29T14:56:09.961Z,39.55
2023-01-29T14:58:52.613Z,32.92
2023-01-29T15:01:34.309Z,17.23
2023-01-29T15:04:15.033Z,16.45
2023-01-29T15:06:46.631Z,15.80
2023-01-29T15:09:17.882Z,16.43
2023-01-29T15:11:56.020Z,18.52
2023-01-29T15:14:26.156Z,18.17
2023-01-29T15:17:28.747Z,17.13
2023-01-29T15:19:56.740Z,14.35
2023-01-29T15:22:29.837Z,18.52
2023-01-29T15:25:05.080Z,19.23
2023-01-29T15:27:32.091Z,14.40
2023-01-29T15:30:01.533Z,15.43
2023-01-29T15:32:36.026Z,15.65
2023-01-29T15:35:08.813Z,15.57
2023-01-29T15:37:36.531Z,17.27
2023-01-29T15:40:06.887Z,15.45
2023-01-29T15:42:48.605Z,14.50
2023-01-29T15:45:31.141Z,16.87
2023-01-29T15:48:03.846Z,20.10
2023-01-29T15:50:32.894Z,20.33
2023-01-29T15:53:04.097Z,31.63
2023-01-29T15:55:31.754Z,18.17
2023-01-29T15:57:59.883Z,16.98
2023-01-29T16:00:29.569Z,20.08
2023-01-29T16:02:58.021Z,17.77
2023-01-29T16:05:28.853Z,19.02
2023-01-29T16:07:57.241Z,18.35
2023-01-29T16:10:30.055Z,21.73
2023-01-29T16:12:57.851Z,19.83
2023-01-29T16:15:34.480Z,20.38
2023-01-29T16:18:04.698Z,20.30
2023-01-29T16:20:45.156Z,22.73
2023-01-29T16:23:21.413Z,26.85
2023-01-29T16:25:49.810Z,26.83
2023-01-29T16:28:17.699Z,26.13
2023-01-29T16:30:44.456Z,29.35
2023-01-29T16:33:17.039Z,21.42
2023-01-29T16:38:28.427Z,20.77
2023-01-29T16:41:15.615Z,17.30
2023-01-29T16:43:55.113Z,16.42
2023-01-29T16:46:26.576Z,18.00
2023-01-29T16:48:53.964Z,16.92
2023-01-29T16:51:36.966Z,18.85
2023-01-29T16:54:12.543Z,20.70
2023-01-29T16:56:39.902Z,18.70
2023-01-29T16:59:07.217Z,19.27
2023-01-29T17:01:36.356Z,22.75
2023-01-29T17:04:10.305Z,35.70
2023-01-29T17:06:38.036Z,25.08
2023-01-29T17:09:06.066Z,22.15
2023-01-29T17:11:34.639Z,21.52
2023-01-29T17:14:01.527Z,21.40
2023-01-29T17:16:37.532Z,20.02
2023-01-29T17:19:17.478Z,22.13
2023-01-29T17:21:44.137Z,18.55
2023-01-29T17:24:10.710Z,18.67
2023-01-29T17:26:37.618Z,19.58
2023-01-29T17:29:04.398Z,19.45
2023-01-29T17:31:31.093Z,18.63
2023-01-29T17:33:57.685Z,20.65
2023-01-29T17:36:24.403Z,20.42
2023-01-29T17:38:50.971Z,18.85
2023-01-29T17:41:30.330Z,23.98
2023-01-29T17:43:56.986Z,20.83
2023-01-29T17:46:23.528Z,18.42
2023-01-29T17:48:50.354Z,20.58
2023-01-29T17:51:17.932Z,18.27
2023-01-29T17:53:46.971Z,19.08
2023-01-29T17:56:21.342Z,19.73
2023-01-29T17:58:48.028Z,21.02
2023-01-29T18:01:14.986Z,18.67
2023-01-29T18:03:41.777Z,19.10
2023-01-29T18:06:09.668Z,19.48
2023-01-29T18:08:38.571Z,20.08
2023-01-29T18:11:06.127Z,19.85
2023-01-29T18:13:32.747Z,19.52
2023-01-29T18:15:59.531Z,17.70
2023-01-29T18:18:26.183Z,19.58
2023-01-29T18:20:53.492Z,20.65
2023-01-29T18:23:20.140Z,20.02
2023-01-29T18:25:46.843Z,18.30
2023-01-29T18:28:16.993Z,15.48
2023-01-29T18:30:46.989Z,21.40
2023-01-29T18:33:14.610Z,16.95
2023-01-29T18:35:41.284Z,19.17
2023-01-29T18:38:07.904Z,19.83
2023-01-29T18:40:34.587Z,18.38
2023-01-29T18:43:01.285Z,19.73
2023-01-29T18:45:28.941Z,18.45
2023-01-29T18:47:55.911Z,18.20
2023-01-29T18:50:26.366Z,18.45
2023-01-29T18:52:53.943Z,20.52
2023-01-29T18:55:21.113Z,21.10
2023-01-29T18:58:27.338Z,19.60
2023-01-29T19:00:34.751Z,22.17
2023-01-29T19:03:01.565Z,18.42
2023-01-29T19:05:28.146Z,24.77
2023-01-29T19:07:54.935Z,27.20
2023-01-29T19:10:21.543Z,25.80
2023-01-29T19:12:48.085Z,22.75
2023-01-29T19:15:16.258Z,23.92
2023-01-29T19:17:43.276Z,21.30
2023-01-29T19:20:11.105Z,20.10
2023-01-29T19:22:39.303Z,18.25
2023-01-29T19:25:06.407Z,21.77
2023-01-29T19:27:33.247Z,20.67
2023-01-29T19:29:59.999Z,21.33
2023-01-29T19:32:29.005Z,20.88
2023-01-29T19:34:55.689Z,24.02
2023-01-29T19:37:22.344Z,21.63
2023-01-29T19:39:48.951Z,20.40
2023-01-29T19:42:16.021Z,20.38
2023-01-29T19:44:42.864Z,18.38
2023-01-29T19:47:09.557Z,19.98
2023-01-29T19:49:36.366Z,19.75
2023-01-29T19:52:03.252Z,21.20
2023-01-29T19:54:30.441Z,20.95
2023-01-29T19:56:57.080Z,33.80
2023-01-29T19:59:23.894Z,35.67
2023-01-29T20:01:50.693Z,30.25
2023-01-29T20:04:17.413Z,24.83
2023-01-29T20:06:44.575Z,30.75
2023-01-29T20:09:11.293Z,35.40
2023-01-29T20:11:37.887Z,103.65
2023-01-29T20:14:04.545Z,53.05
2023-01-29T20:16:31.189Z,45.58
2023-01-29T20:19:13.667Z,42.75
2023-01-29T20:21:45.947Z,40.15
2023-01-29T20:24:13.238Z,30.70
2023-01-29T20:26:40.354Z,28.83
2023-01-29T20:29:06.932Z,32.53
2023-01-29T20:31:33.866Z,34.30
2023-01-29T20:34:00.556Z,31.52
2023-01-29T20:36:27.132Z,34.28
2023-01-29T20:38:53.684Z,32.55
2023-01-29T20:41:21.206Z,35.78
2023-01-29T20:43:50.215Z,34.55
2023-01-29T20:46:17.102Z,46.33
2023-01-29T20:48:43.855Z,45.88
2023-01-29T20:51:16.766Z,38.00
2023-01-29T20:53:45.493Z,46.85
2023-01-29T20:56:14.585Z,42.97
2023-01-29T20:58:41.467Z,39.95
2023-01-29T21:01:13.645Z,37.80
2023-01-29T21:03:40.505Z,40.70
2023-01-29T21:06:09.459Z,41.38
2023-01-29T21:08:37.390Z,41.90
2023-01-29T21:11:05.933Z,43.15
2023-01-29T21:13:32.716Z,64.88
2023-01-29T21:15:59.798Z,46.75
2023-01-29T21:18:26.458Z,46.15
2023-01-29T21:20:53.811Z,40.17
2023-01-29T21:23:21.114Z,35.25
2023-01-29T21:25:48.170Z,33.75
2023-01-29T21:28:15.658Z,34.00
2023-01-29T21:30:42.336Z,38.47
2023-01-29T21:33:09.057Z,35.63
2023-01-29T21:35:37.728Z,35.03
2023-01-29T21:38:04.567Z,34.63
2023-01-29T21:40:31.241Z,36.70
2023-01-29T21:43:12.976Z,40.65
2023-01-29T21:45:40.533Z,35.97
2023-01-29T21:48:08.120Z,39.85
2023-01-29T21:50:34.788Z,38.65
2023-01-29T21:53:01.469Z,36.85
2023-01-29T21:55:28.146Z,36.90
2023-01-29T21:57:55.629Z,40.08
2023-01-29T22:00:22.519Z,36.30
2023-01-29T22:02:50.188Z,38.97
2023-01-29T22:05:19.709Z,38.40
2023-01-29T22:07:47.883Z,31.80
2023-01-29T22:10:15.604Z,32.05
2023-01-29T22:12:43.026Z,39.35
2023-01-29T22:15:10.255Z,34.25
2023-01-29T22:17:38.540Z,36.00
2023-01-29T22:20:06.424Z,38.08
2023-01-29T22:22:32.971Z,39.33
2023-01-29T22:24:59.585Z,37.03
2023-01-29T22:27:26.145Z,41.03
2023-01-29T22:29:52.702Z,34.40
2023-01-29T22:32:19.293Z,33.00
2023-01-29T22:34:45.874Z,36.65
2023-01-29T22:37:12.450Z,31.35
2023-01-29T22:39:39.062Z,37.20
2023-01-29T22:42:05.648Z,34.80
2023-01-29T22:44:32.246Z,33.53
2023-01-29T22:46:58.873Z,30.75
2023-01-29T22:49:26.359Z,34.38
2023-01-29T22:52:09.990Z,34.00
2023-01-29T22:54:41.259Z,31.42
2023-01-29T22:57:10.646Z,30.55
2023-01-29T22:59:37.548Z,32.03
2023-01-29T23:02:04.506Z,34.13
2023-01-29T23:04:31.222Z,28.38
2023-01-29T23:06:57.854Z,30.00
2023-01-29T23:09:24.536Z,31.20
2023-01-29T23:11:51.185Z,32.00
2023-01-29T23:14:17.872Z,29.92
2023-01-29T23:16:44.447Z,29.02
2023-01-29T23:19:12.168Z,31.58
2023-01-29T23:21:39.775Z,30.50
2023-01-29T23:24:07.789Z,27.13
2023-01-29T23:26:53.345Z,36.33
2023-01-29T23:29:20.038Z,29.38
2023-01-29T23:31:46.653Z,29.65
2023-01-29T23:34:14.018Z,31.50
2023-01-29T23:36:41.026Z,29.40
2023-01-29T23:39:07.780Z,30.10
2023-01-29T23:41:34.526Z,28.95
2023-01-29T23:44:01.214Z,30.20
2023-01-29T23:46:27.920Z,30.45
2023-01-29T23:48:54.610Z,30.95
2023-01-29T23:51:21.171Z,31.33
2023-01-29T23:53:47.722Z,31.02
2023-01-29T23:56:14.285Z,31.30
2023-01-29T23:58:40.930Z,31.02
